Terminal Aerodrome Forecast
Issued by NWS Northern Indiana

Home | Current Version | Previous Version | Graphics & Text | Print | Product List | Glossary On
Versions: 1 2 3 4 5 6 7 8 9 10 11 12 13 14 15 16
071
FTUS43 KIWX 072339
TAFFWA
TAF
KFWA 072339Z 0800/0824 22010KT P6SM SCT040 BKN100
     FM080400 24005KT P6SM BKN040
     FM081400 27006KT 5SM BR OVC020
     FM081800 29010KT 5SM -SHSN OVC025
     FM082100 30009KT 2SM -SHSN OVC020=

USA.gov is the U.S. government's official web portal to all federal, state and local government web resources and services.